sensor_id;sensor_type;location;lat;lon;timestamp;temperature;humidity
52495;DHT22;38405;53.212;5.660;2023-03-14T00:01:17;9.90;99.90
52495;DHT22;38405;53.212;5.660;2023-03-14T00:03:43;9.90;99.90
52495;DHT22;38405;53.212;5.660;2023-03-14T00:06:10;9.90;99.90
52495;DHT22;38405;53.212;5.660;2023-03-14T00:08:36;9.90;99.90
52495;DHT22;38405;53.212;5.660;2023-03-14T00:11:16;9.90;99.90
52495;DHT22;38405;53.212;5.660;2023-03-14T00:13:42;9.80;99.90
52495;DHT22;38405;53.212;5.660;2023-03-14T00:16:11;9.70;99.90
52495;DHT22;38405;53.212;5.660;2023-03-14T00:18:37;9.70;99.90
52495;DHT22;38405;53.212;5.660;2023-03-14T00:21:05;9.60;99.90
52495;DHT22;38405;53.212;5.660;2023-03-14T00:23:32;9.60;99.90
52495;DHT22;38405;53.212;5.660;2023-03-14T00:26:00;9.50;99.90
52495;DHT22;38405;53.212;5.660;2023-03-14T00:28:26;9.40;99.90
52495;DHT22;38405;53.212;5.660;2023-03-14T00:30:52;9.30;99.90
52495;DHT22;38405;53.212;5.660;2023-03-14T00:33:18;9.30;99.90
52495;DHT22;38405;53.212;5.660;2023-03-14T00:35:43;9.20;99.90
52495;DHT22;38405;53.212;5.660;2023-03-14T00:38:09;9.10;99.90
52495;DHT22;38405;53.212;5.660;2023-03-14T00:40:38;9.10;99.90
52495;DHT22;38405;53.212;5.660;2023-03-14T00:43:04;9.10;99.90
52495;DHT22;38405;53.212;5.660;2023-03-14T00:45:30;9.00;99.90
52495;DHT22;38405;53.212;5.660;2023-03-14T00:47:55;9.00;99.90
52495;DHT22;38405;53.212;5.660;2023-03-14T00:50:21;9.10;99.90
52495;DHT22;38405;53.212;5.660;2023-03-14T00:52:47;9.10;99.90
52495;DHT22;38405;53.212;5.660;2023-03-14T00:55:14;9.10;99.90
52495;DHT22;38405;53.212;5.660;2023-03-14T00:57:39;9.20;99.90
52495;DHT22;38405;53.212;5.660;2023-03-14T01:00:05;9.20;99.90
52495;DHT22;38405;53.212;5.660;2023-03-14T01:02:33;9.30;99.90
52495;DHT22;38405;53.212;5.660;2023-03-14T01:04:59;9.30;99.90
52495;DHT22;38405;53.212;5.660;2023-03-14T01:07:24;9.30;99.90
52495;DHT22;38405;53.212;5.660;2023-03-14T01:09:52;9.30;99.90
52495;DHT22;38405;53.212;5.660;2023-03-14T01:12:18;9.30;99.90
52495;DHT22;38405;53.212;5.660;2023-03-14T01:14:43;9.30;99.90
52495;DHT22;38405;53.212;5.660;2023-03-14T01:17:09;9.20;99.90
52495;DHT22;38405;53.212;5.660;2023-03-14T01:19:35;9.20;99.90
52495;DHT22;38405;53.212;5.660;2023-03-14T01:22:00;9.20;99.90
52495;DHT22;38405;53.212;5.660;2023-03-14T01:24:27;9.10;99.90
52495;DHT22;38405;53.212;5.660;2023-03-14T01:26:53;9.10;99.90
52495;DHT22;38405;53.212;5.660;2023-03-14T01:29:19;9.10;99.90
52495;DHT22;38405;53.212;5.660;2023-03-14T01:31:44;9.10;99.90
52495;DHT22;38405;53.212;5.660;2023-03-14T01:34:10;9.00;99.90
52495;DHT22;38405;53.212;5.660;2023-03-14T01:36:35;9.00;99.90
52495;DHT22;38405;53.212;5.660;2023-03-14T01:39:02;9.00;99.90
52495;DHT22;38405;53.212;5.660;2023-03-14T01:41:28;9.00;99.90
52495;DHT22;38405;53.212;5.660;2023-03-14T01:43:54;9.00;99.90
52495;DHT22;38405;53.212;5.660;2023-03-14T01:49:32;9.00;99.90
52495;DHT22;38405;53.212;5.660;2023-03-14T01:54:40;9.00;99.90
52495;DHT22;38405;53.212;5.660;2023-03-14T01:57:19;9.00;99.90
52495;DHT22;38405;53.212;5.660;2023-03-14T01:59:57;9.00;99.90
52495;DHT22;38405;53.212;5.660;2023-03-14T02:02:24;9.00;99.90
52495;DHT22;38405;53.212;5.660;2023-03-14T02:04:52;9.00;99.90
52495;DHT22;38405;53.212;5.660;2023-03-14T02:07:33;9.00;99.90
52495;DHT22;38405;53.212;5.660;2023-03-14T02:10:02;9.00;99.90
52495;DHT22;38405;53.212;5.660;2023-03-14T02:12:28;8.90;99.90
52495;DHT22;38405;53.212;5.660;2023-03-14T02:14:54;8.90;99.90
52495;DHT22;38405;53.212;5.660;2023-03-14T02:17:22;8.90;99.90
52495;DHT22;38405;53.212;5.660;2023-03-14T02:22:31;8.80;99.90
52495;DHT22;38405;53.212;5.660;2023-03-14T02:27:30;8.80;99.90
52495;DHT22;38405;53.212;5.660;2023-03-14T02:29:59;8.80;99.90
52495;DHT22;38405;53.212;5.660;2023-03-14T02:32:27;8.80;99.90
52495;DHT22;38405;53.212;5.660;2023-03-14T02:34:57;8.80;99.90
52495;DHT22;38405;53.212;5.660;2023-03-14T02:37:27;8.80;99.90
52495;DHT22;38405;53.212;5.660;2023-03-14T02:39:55;8.70;99.90
52495;DHT22;38405;53.212;5.660;2023-03-14T02:42:21;8.70;99.90
52495;DHT22;38405;53.212;5.660;2023-03-14T02:45:00;8.70;99.90
52495;DHT22;38405;53.212;5.660;2023-03-14T02:47:29;8.70;99.90
52495;DHT22;38405;53.212;5.660;2023-03-14T02:50:04;8.70;99.90
52495;DHT22;38405;53.212;5.660;2023-03-14T02:52:31;8.70;99.90
52495;DHT22;38405;53.212;5.660;2023-03-14T02:54:57;8.60;99.90
52495;DHT22;38405;53.212;5.660;2023-03-14T02:57:23;8.70;99.90
52495;DHT22;38405;53.212;5.660;2023-03-14T02:59:48;8.60;99.90
52495;DHT22;38405;53.212;5.660;2023-03-14T03:02:14;8.60;99.90
52495;DHT22;38405;53.212;5.660;2023-03-14T03:04:40;8.60;99.90
52495;DHT22;38405;53.212;5.660;2023-03-14T03:07:05;8.70;99.90
52495;DHT22;38405;53.212;5.660;2023-03-14T03:09:31;8.70;99.90
52495;DHT22;38405;53.212;5.660;2023-03-14T03:11:57;8.70;99.90
52495;DHT22;38405;53.212;5.660;2023-03-14T03:14:22;8.70;99.90
52495;DHT22;38405;53.212;5.660;2023-03-14T03:16:48;8.70;99.90
52495;DHT22;38405;53.212;5.660;2023-03-14T03:19:14;8.70;99.90
52495;DHT22;38405;53.212;5.660;2023-03-14T03:21:39;8.70;99.90
52495;DHT22;38405;53.212;5.660;2023-03-14T03:24:08;8.70;99.90
52495;DHT22;38405;53.212;5.660;2023-03-14T03:26:35;8.70;99.90
52495;DHT22;38405;53.212;5.660;2023-03-14T03:29:01;8.70;99.90
52495;DHT22;38405;53.212;5.660;2023-03-14T03:31:26;8.80;99.90
52495;DHT22;38405;53.212;5.660;2023-03-14T03:33:52;8.80;99.90
52495;DHT22;38405;53.212;5.660;2023-03-14T03:36:22;8.80;99.90
52495;DHT22;38405;53.212;5.660;2023-03-14T03:38:48;8.80;99.90
52495;DHT22;38405;53.212;5.660;2023-03-14T03:41:14;8.80;99.90
52495;DHT22;38405;53.212;5.660;2023-03-14T03:43:40;8.80;99.90
52495;DHT22;38405;53.212;5.660;2023-03-14T03:46:06;8.80;99.90
52495;DHT22;38405;53.212;5.660;2023-03-14T03:48:33;8.80;99.90
52495;DHT22;38405;53.212;5.660;2023-03-14T03:50:59;8.80;99.90
52495;DHT22;38405;53.212;5.660;2023-03-14T03:53:25;8.80;99.90
52495;DHT22;38405;53.212;5.660;2023-03-14T03:55:51;8.80;99.90
52495;DHT22;38405;53.212;5.660;2023-03-14T03:58:16;8.80;99.90
52495;DHT22;38405;53.212;5.660;2023-03-14T04:00:42;8.80;99.90
52495;DHT22;38405;53.212;5.660;2023-03-14T04:03:08;8.80;99.90
52495;DHT22;38405;53.212;5.660;2023-03-14T04:05:34;8.70;99.90
52495;DHT22;38405;53.212;5.660;2023-03-14T04:08:00;8.70;99.90
52495;DHT22;38405;53.212;5.660;2023-03-14T04:10:26;8.70;99.90
52495;DHT22;38405;53.212;5.660;2023-03-14T04:12:52;8.70;99.90
52495;DHT22;38405;53.212;5.660;2023-03-14T04:15:18;8.60;99.90
52495;DHT22;38405;53.212;5.660;2023-03-14T04:17:43;8.70;99.90
52495;DHT22;38405;53.212;5.660;2023-03-14T04:20:10;8.60;99.90
52495;DHT22;38405;53.212;5.660;2023-03-14T04:22:39;8.60;99.90
52495;DHT22;38405;53.212;5.660;2023-03-14T04:25:05;8.60;99.90
52495;DHT22;38405;53.212;5.660;2023-03-14T04:27:32;8.50;99.90
52495;DHT22;38405;53.212;5.660;2023-03-14T04:29:57;8.50;99.90
52495;DHT22;38405;53.212;5.660;2023-03-14T04:32:23;8.50;99.90
52495;DHT22;38405;53.212;5.660;2023-03-14T04:34:49;8.40;99.90
52495;DHT22;38405;53.212;5.660;2023-03-14T04:37:14;8.50;99.90
52495;DHT22;38405;53.212;5.660;2023-03-14T04:39:41;8.40;99.90
52495;DHT22;38405;53.212;5.660;2023-03-14T04:42:06;8.40;99.90
52495;DHT22;38405;53.212;5.660;2023-03-14T04:44:32;8.40;99.90
52495;DHT22;38405;53.212;5.660;2023-03-14T04:46:58;8.40;99.90
52495;DHT22;38405;53.212;5.660;2023-03-14T04:49:24;8.50;99.90
52495;DHT22;38405;53.212;5.660;2023-03-14T04:51:49;8.40;99.90
52495;DHT22;38405;53.212;5.660;2023-03-14T04:54:18;8.40;99.90
52495;DHT22;38405;53.212;5.660;2023-03-14T04:56:43;8.40;99.90
52495;DHT22;38405;53.212;5.660;2023-03-14T04:59:09;8.40;99.90
52495;DHT22;38405;53.212;5.660;2023-03-14T05:01:35;8.40;99.90
52495;DHT22;38405;53.212;5.660;2023-03-14T05:04:01;8.40;99.90
52495;DHT22;38405;53.212;5.660;2023-03-14T05:06:26;8.40;99.90
52495;DHT22;38405;53.212;5.660;2023-03-14T05:08:52;8.40;99.90
52495;DHT22;38405;53.212;5.660;2023-03-14T05:11:18;8.40;99.90
52495;DHT22;38405;53.212;5.660;2023-03-14T05:13:43;8.40;99.90
52495;DHT22;38405;53.212;5.660;2023-03-14T05:16:10;8.40;99.90
52495;DHT22;38405;53.212;5.660;2023-03-14T05:18:37;8.40;99.90
52495;DHT22;38405;53.212;5.660;2023-03-14T05:21:03;8.40;99.90
52495;DHT22;38405;53.212;5.660;2023-03-14T05:23:29;8.40;99.90
52495;DHT22;38405;53.212;5.660;2023-03-14T05:25:55;8.40;99.90
52495;DHT22;38405;53.212;5.660;2023-03-14T05:28:21;8.40;99.90
52495;DHT22;38405;53.212;5.660;2023-03-14T05:30:47;8.30;99.90
52495;DHT22;38405;53.212;5.660;2023-03-14T05:33:12;8.30;99.90
52495;DHT22;38405;53.212;5.660;2023-03-14T05:35:38;8.20;99.90
52495;DHT22;38405;53.212;5.660;2023-03-14T05:38:04;8.00;99.90
52495;DHT22;38405;53.212;5.660;2023-03-14T05:40:29;7.90;99.90
52495;DHT22;38405;53.212;5.660;2023-03-14T05:42:55;7.80;99.90
52495;DHT22;38405;53.212;5.660;2023-03-14T05:45:21;7.70;99.90
52495;DHT22;38405;53.212;5.660;2023-03-14T05:47:46;7.50;99.90
52495;DHT22;38405;53.212;5.660;2023-03-14T05:50:12;7.40;99.90
52495;DHT22;38405;53.212;5.660;2023-03-14T05:52:38;7.30;99.90
52495;DHT22;38405;53.212;5.660;2023-03-14T05:55:04;7.10;99.90
52495;DHT22;38405;53.212;5.660;2023-03-14T05:57:30;6.90;99.90
52495;DHT22;38405;53.212;5.660;2023-03-14T05:59:55;6.60;99.90
52495;DHT22;38405;53.212;5.660;2023-03-14T06:02:21;6.40;99.90
52495;DHT22;38405;53.212;5.660;2023-03-14T06:04:47;6.20;99.90
52495;DHT22;38405;53.212;5.660;2023-03-14T06:07:12;6.10;99.90
52495;DHT22;38405;53.212;5.660;2023-03-14T06:09:38;5.90;99.90
52495;DHT22;38405;53.212;5.660;2023-03-14T06:12:05;5.70;99.90
52495;DHT22;38405;53.212;5.660;2023-03-14T06:14:31;5.60;99.90
52495;DHT22;38405;53.212;5.660;2023-03-14T06:16:57;5.40;99.90
52495;DHT22;38405;53.212;5.660;2023-03-14T06:19:25;5.30;99.90
52495;DHT22;38405;53.212;5.660;2023-03-14T06:21:51;5.30;99.90
52495;DHT22;38405;53.212;5.660;2023-03-14T06:24:17;5.20;99.90
52495;DHT22;38405;53.212;5.660;2023-03-14T06:26:43;5.10;99.90
52495;DHT22;38405;53.212;5.660;2023-03-14T06:29:08;5.00;99.90
52495;DHT22;38405;53.212;5.660;2023-03-14T06:31:34;5.00;99.90
52495;DHT22;38405;53.212;5.660;2023-03-14T06:34:00;4.90;99.90
52495;DHT22;38405;53.212;5.660;2023-03-14T06:36:26;4.90;99.90
52495;DHT22;38405;53.212;5.660;2023-03-14T06:38:51;4.90;99.90
52495;DHT22;38405;53.212;5.660;2023-03-14T06:41:17;4.80;99.90
52495;DHT22;38405;53.212;5.660;2023-03-14T06:43:43;4.80;99.90
52495;DHT22;38405;53.212;5.660;2023-03-14T06:46:08;4.80;99.90
52495;DHT22;38405;53.212;5.660;2023-03-14T06:48:34;4.80;99.90
52495;DHT22;38405;53.212;5.660;2023-03-14T06:51:00;4.80;99.90
52495;DHT22;38405;53.212;5.660;2023-03-14T06:53:25;4.80;99.90
52495;DHT22;38405;53.212;5.660;2023-03-14T06:55:51;4.70;99.90
52495;DHT22;38405;53.212;5.660;2023-03-14T06:58:17;4.70;99.90
52495;DHT22;38405;53.212;5.660;2023-03-14T07:00:42;4.70;99.90
52495;DHT22;38405;53.212;5.660;2023-03-14T07:03:10;4.80;99.90
52495;DHT22;38405;53.212;5.660;2023-03-14T07:05:35;4.70;99.90
52495;DHT22;38405;53.212;5.660;2023-03-14T07:08:01;4.60;99.90
52495;DHT22;38405;53.212;5.660;2023-03-14T07:10:27;4.70;99.90
52495;DHT22;38405;53.212;5.660;2023-03-14T07:12:52;4.70;99.90
52495;DHT22;38405;53.212;5.660;2023-03-14T07:15:19;4.70;99.90
52495;DHT22;38405;53.212;5.660;2023-03-14T07:17:45;4.70;99.90
52495;DHT22;38405;53.212;5.660;2023-03-14T07:20:13;4.70;99.90
52495;DHT22;38405;53.212;5.660;2023-03-14T07:22:39;4.80;99.90
52495;DHT22;38405;53.212;5.660;2023-03-14T07:25:05;4.80;99.90
52495;DHT22;38405;53.212;5.660;2023-03-14T07:27:31;4.90;99.90
52495;DHT22;38405;53.212;5.660;2023-03-14T07:29:56;4.80;99.90
52495;DHT22;38405;53.212;5.660;2023-03-14T07:32:22;4.90;99.90
52495;DHT22;38405;53.212;5.660;2023-03-14T07:34:48;4.90;99.90
52495;DHT22;38405;53.212;5.660;2023-03-14T07:37:13;4.90;99.90
52495;DHT22;38405;53.212;5.660;2023-03-14T07:39:39;4.90;99.90
52495;DHT22;38405;53.212;5.660;2023-03-14T07:42:05;5.00;99.90
52495;DHT22;38405;53.212;5.660;2023-03-14T07:44:31;5.10;99.90
52495;DHT22;38405;53.212;5.660;2023-03-14T07:46:57;5.00;99.90
52495;DHT22;38405;53.212;5.660;2023-03-14T07:49:22;5.10;99.90
52495;DHT22;38405;53.212;5.660;2023-03-14T07:51:48;5.20;99.90
52495;DHT22;38405;53.212;5.660;2023-03-14T07:54:14;5.30;99.90
52495;DHT22;38405;53.212;5.660;2023-03-14T07:56:40;5.40;99.90
52495;DHT22;38405;53.212;5.660;2023-03-14T07:59:05;5.40;99.90
52495;DHT22;38405;53.212;5.660;2023-03-14T08:01:31;5.60;99.90
52495;DHT22;38405;53.212;5.660;2023-03-14T08:03:57;5.70;99.90
52495;DHT22;38405;53.212;5.660;2023-03-14T08:06:22;5.70;99.90
52495;DHT22;38405;53.212;5.660;2023-03-14T08:08:48;5.80;99.90
52495;DHT22;38405;53.212;5.660;2023-03-14T08:11:14;5.90;99.90
52495;DHT22;38405;53.212;5.660;2023-03-14T08:13:39;6.00;99.90
52495;DHT22;38405;53.212;5.660;2023-03-14T08:16:05;6.10;99.90
52495;DHT22;38405;53.212;5.660;2023-03-14T08:18:31;6.40;99.90
52495;DHT22;38405;53.212;5.660;2023-03-14T08:20:57;6.60;99.90
52495;DHT22;38405;53.212;5.660;2023-03-14T08:23:23;6.40;99.90
52495;DHT22;38405;53.212;5.660;2023-03-14T08:25:50;6.40;99.90
52495;DHT22;38405;53.212;5.660;2023-03-14T08:28:16;6.30;99.90
52495;DHT22;38405;53.212;5.660;2023-03-14T08:30:42;6.30;99.90
52495;DHT22;38405;53.212;5.660;2023-03-14T08:33:08;6.20;99.90
52495;DHT22;38405;53.212;5.660;2023-03-14T08:35:33;5.80;99.90
52495;DHT22;38405;53.212;5.660;2023-03-14T08:37:59;5.50;99.90
52495;DHT22;38405;53.212;5.660;2023-03-14T08:40:25;5.40;99.90
52495;DHT22;38405;53.212;5.660;2023-03-14T08:42:50;5.50;99.90
52495;DHT22;38405;53.212;5.660;2023-03-14T08:45:17;5.40;99.90
52495;DHT22;38405;53.212;5.660;2023-03-14T08:47:44;5.40;99.90
52495;DHT22;38405;53.212;5.660;2023-03-14T08:50:11;5.40;99.90
52495;DHT22;38405;53.212;5.660;2023-03-14T08:52:36;5.50;99.90
52495;DHT22;38405;53.212;5.660;2023-03-14T08:55:11;5.60;99.90
52495;DHT22;38405;53.212;5.660;2023-03-14T08:57:37;5.70;99.90
52495;DHT22;38405;53.212;5.660;2023-03-14T09:00:04;5.80;99.90
52495;DHT22;38405;53.212;5.660;2023-03-14T09:02:39;6.00;99.90
52495;DHT22;38405;53.212;5.660;2023-03-14T09:05:06;6.10;99.90
52495;DHT22;38405;53.212;5.660;2023-03-14T09:07:32;6.20;99.90
52495;DHT22;38405;53.212;5.660;2023-03-14T09:09:58;6.50;99.90
52495;DHT22;38405;53.212;5.660;2023-03-14T09:12:23;6.40;99.90
52495;DHT22;38405;53.212;5.660;2023-03-14T09:14:49;6.20;99.90
52495;DHT22;38405;53.212;5.660;2023-03-14T09:17:15;6.20;99.90
52495;DHT22;38405;53.212;5.660;2023-03-14T09:19:40;6.20;99.90
52495;DHT22;38405;53.212;5.660;2023-03-14T09:22:06;6.20;99.90
52495;DHT22;38405;53.212;5.660;2023-03-14T09:24:32;6.20;99.90
52495;DHT22;38405;53.212;5.660;2023-03-14T09:26:57;6.40;99.90
52495;DHT22;38405;53.212;5.660;2023-03-14T09:29:23;6.50;99.90
52495;DHT22;38405;53.212;5.660;2023-03-14T09:31:50;6.60;99.90
52495;DHT22;38405;53.212;5.660;2023-03-14T09:34:15;6.90;99.90
52495;DHT22;38405;53.212;5.660;2023-03-14T09:36:41;7.10;99.90
52495;DHT22;38405;53.212;5.660;2023-03-14T09:39:10;7.20;99.90
52495;DHT22;38405;53.212;5.660;2023-03-14T09:41:41;7.20;99.90
52495;DHT22;38405;53.212;5.660;2023-03-14T09:44:30;7.20;99.90
52495;DHT22;38405;53.212;5.660;2023-03-14T09:47:09;7.20;99.90
52495;DHT22;38405;53.212;5.660;2023-03-14T09:49:39;7.30;99.90
52495;DHT22;38405;53.212;5.660;2023-03-14T09:52:13;7.70;99.90
52495;DHT22;38405;53.212;5.660;2023-03-14T09:57:19;7.70;99.90
52495;DHT22;38405;53.212;5.660;2023-03-14T09:59:46;7.90;99.90
52495;DHT22;38405;53.212;5.660;2023-03-14T10:02:24;8.30;99.90
52495;DHT22;38405;53.212;5.660;2023-03-14T10:04:52;8.60;99.90
52495;DHT22;38405;53.212;5.660;2023-03-14T10:09:52;8.10;99.90
52495;DHT22;38405;53.212;5.660;2023-03-14T10:12:19;7.80;99.90
52495;DHT22;38405;53.212;5.660;2023-03-14T10:14:48;7.80;99.90
52495;DHT22;38405;53.212;5.660;2023-03-14T10:17:16;7.70;99.90
52495;DHT22;38405;53.212;5.660;2023-03-14T10:19:57;7.80;99.90
52495;DHT22;38405;53.212;5.660;2023-03-14T10:22:29;7.80;99.90
52495;DHT22;38405;53.212;5.660;2023-03-14T10:25:00;8.10;99.90
52495;DHT22;38405;53.212;5.660;2023-03-14T10:27:34;8.30;99.90
52495;DHT22;38405;53.212;5.660;2023-03-14T10:30:02;8.70;99.90
52495;DHT22;38405;53.212;5.660;2023-03-14T10:32:37;8.50;99.90
52495;DHT22;38405;53.212;5.660;2023-03-14T10:35:26;8.20;99.90
52495;DHT22;38405;53.212;5.660;2023-03-14T10:38:02;7.90;99.90
52495;DHT22;38405;53.212;5.660;2023-03-14T10:40:32;7.70;99.90
52495;DHT22;38405;53.212;5.660;2023-03-14T10:42:59;7.80;99.90
52495;DHT22;38405;53.212;5.660;2023-03-14T10:45:30;7.60;99.90
52495;DHT22;38405;53.212;5.660;2023-03-14T10:48:05;7.60;99.90
52495;DHT22;38405;53.212;5.660;2023-03-14T10:50:32;7.70;99.90
52495;DHT22;38405;53.212;5.660;2023-03-14T10:53:02;7.80;99.90
52495;DHT22;38405;53.212;5.660;2023-03-14T10:55:41;8.00;99.90
52495;DHT22;38405;53.212;5.660;2023-03-14T11:00:45;8.40;99.90
52495;DHT22;38405;53.212;5.660;2023-03-14T11:03:13;8.60;99.90
52495;DHT22;38405;53.212;5.660;2023-03-14T11:05:53;8.60;99.90
52495;DHT22;38405;53.212;5.660;2023-03-14T11:08:31;8.60;99.90
52495;DHT22;38405;53.212;5.660;2023-03-14T11:11:17;8.70;99.90
52495;DHT22;38405;53.212;5.660;2023-03-14T11:16:40;8.70;99.90
52495;DHT22;38405;53.212;5.660;2023-03-14T11:19:31;8.80;99.90
52495;DHT22;38405;53.212;5.660;2023-03-14T11:22:09;8.90;99.90
52495;DHT22;38405;53.212;5.660;2023-03-14T11:27:36;9.10;99.90
52495;DHT22;38405;53.212;5.660;2023-03-14T11:35:30;9.00;99.90
52495;DHT22;38405;53.212;5.660;2023-03-14T11:40:33;9.30;99.90
52495;DHT22;38405;53.212;5.660;2023-03-14T11:45:41;9.30;99.90
52495;DHT22;38405;53.212;5.660;2023-03-14T11:51:24;9.30;99.90
52495;DHT22;38405;53.212;5.660;2023-03-14T11:59:23;8.80;99.90
52495;DHT22;38405;53.212;5.660;2023-03-14T12:07:29;8.40;99.90
52495;DHT22;38405;53.212;5.660;2023-03-14T12:09:59;8.20;99.90
52495;DHT22;38405;53.212;5.660;2023-03-14T12:12:27;8.30;99.90
52495;DHT22;38405;53.212;5.660;2023-03-14T12:15:03;8.30;99.90
52495;DHT22;38405;53.212;5.660;2023-03-14T12:17:40;8.40;99.90
52495;DHT22;38405;53.212;5.660;2023-03-14T12:20:19;8.40;99.90
52495;DHT22;38405;53.212;5.660;2023-03-14T12:22:57;8.30;99.90
52495;DHT22;38405;53.212;5.660;2023-03-14T12:25:32;8.30;99.90
52495;DHT22;38405;53.212;5.660;2023-03-14T12:28:30;8.30;99.90
52495;DHT22;38405;53.212;5.660;2023-03-14T12:30:55;8.40;99.90
52495;DHT22;38405;53.212;5.660;2023-03-14T12:33:27;8.10;99.90
52495;DHT22;38405;53.212;5.660;2023-03-14T12:36:01;8.10;99.90
52495;DHT22;38405;53.212;5.660;2023-03-14T12:41:26;8.20;99.90
52495;DHT22;38405;53.212;5.660;2023-03-14T12:43:53;8.40;99.90
52495;DHT22;38405;53.212;5.660;2023-03-14T12:46:24;8.60;99.90
52495;DHT22;38405;53.212;5.660;2023-03-14T12:48:55;8.50;99.90
52495;DHT22;38405;53.212;5.660;2023-03-14T12:51:35;8.70;99.90
52495;DHT22;38405;53.212;5.660;2023-03-14T12:57:04;8.40;99.90
52495;DHT22;38405;53.212;5.660;2023-03-14T12:59:36;8.00;99.90
52495;DHT22;38405;53.212;5.660;2023-03-14T13:12:40;8.60;99.90
52495;DHT22;38405;53.212;5.660;2023-03-14T13:15:21;8.50;99.90
52495;DHT22;38405;53.212;5.660;2023-03-14T13:17:48;8.50;99.90
52495;DHT22;38405;53.212;5.660;2023-03-14T13:20:32;8.60;99.90
52495;DHT22;38405;53.212;5.660;2023-03-14T13:22:59;8.40;99.90
52495;DHT22;38405;53.212;5.660;2023-03-14T13:25:29;8.20;99.90
52495;DHT22;38405;53.212;5.660;2023-03-14T13:27:55;8.10;99.90
52495;DHT22;38405;53.212;5.660;2023-03-14T13:30:46;8.10;99.90
52495;DHT22;38405;53.212;5.660;2023-03-14T13:33:20;8.10;99.90
52495;DHT22;38405;53.212;5.660;2023-03-14T13:38:24;8.20;99.90
52495;DHT22;38405;53.212;5.660;2023-03-14T13:40:52;8.30;99.90
52495;DHT22;38405;53.212;5.660;2023-03-14T13:43:39;8.40;99.90
52495;DHT22;38405;53.212;5.660;2023-03-14T13:48:47;8.30;99.90
52495;DHT22;38405;53.212;5.660;2023-03-14T13:51:19;8.20;99.90
52495;DHT22;38405;53.212;5.660;2023-03-14T13:53:50;8.10;99.90
52495;DHT22;38405;53.212;5.660;2023-03-14T13:56:18;7.90;99.90
52495;DHT22;38405;53.212;5.660;2023-03-14T13:58:45;7.80;99.90
52495;DHT22;38405;53.212;5.660;2023-03-14T14:01:20;7.70;99.90
52495;DHT22;38405;53.212;5.660;2023-03-14T14:03:49;7.70;99.90
52495;DHT22;38405;53.212;5.660;2023-03-14T14:06:35;7.70;99.90
52495;DHT22;38405;53.212;5.660;2023-03-14T14:09:38;7.70;99.90
52495;DHT22;38405;53.212;5.660;2023-03-14T14:12:03;7.60;99.90
52495;DHT22;38405;53.212;5.660;2023-03-14T14:14:31;7.50;99.90
52495;DHT22;38405;53.212;5.660;2023-03-14T14:17:00;7.40;99.90
52495;DHT22;38405;53.212;5.660;2023-03-14T14:19:28;7.40;99.90
52495;DHT22;38405;53.212;5.660;2023-03-14T14:21:56;7.30;99.90
52495;DHT22;38405;53.212;5.660;2023-03-14T14:24:24;7.10;99.90
52495;DHT22;38405;53.212;5.660;2023-03-14T14:26:58;7.00;99.90
52495;DHT22;38405;53.212;5.660;2023-03-14T14:29:29;7.10;99.90
52495;DHT22;38405;53.212;5.660;2023-03-14T14:39:45;7.20;99.90
52495;DHT22;38405;53.212;5.660;2023-03-14T14:42:19;7.10;99.90
52495;DHT22;38405;53.212;5.660;2023-03-14T14:44:47;6.90;99.90
52495;DHT22;38405;53.212;5.660;2023-03-14T14:47:20;6.90;99.90
52495;DHT22;38405;53.212;5.660;2023-03-14T14:49:50;7.00;99.90
52495;DHT22;38405;53.212;5.660;2023-03-14T14:52:19;7.20;99.90
52495;DHT22;38405;53.212;5.660;2023-03-14T14:54:52;7.30;99.90
52495;DHT22;38405;53.212;5.660;2023-03-14T14:57:24;7.30;99.90
52495;DHT22;38405;53.212;5.660;2023-03-14T14:59:51;7.30;99.90
52495;DHT22;38405;53.212;5.660;2023-03-14T15:02:38;7.20;99.90
52495;DHT22;38405;53.212;5.660;2023-03-14T15:05:18;7.20;99.90
52495;DHT22;38405;53.212;5.660;2023-03-14T15:07:45;7.00;99.90
52495;DHT22;38405;53.212;5.660;2023-03-14T15:10:17;6.80;99.90
52495;DHT22;38405;53.212;5.660;2023-03-14T15:12:43;6.40;99.90
52495;DHT22;38405;53.212;5.660;2023-03-14T15:15:09;6.00;99.90
52495;DHT22;38405;53.212;5.660;2023-03-14T15:17:35;5.80;99.90
52495;DHT22;38405;53.212;5.660;2023-03-14T15:20:03;5.70;99.90
52495;DHT22;38405;53.212;5.660;2023-03-14T15:22:30;5.70;99.90
52495;DHT22;38405;53.212;5.660;2023-03-14T15:24:56;5.80;99.90
52495;DHT22;38405;53.212;5.660;2023-03-14T15:27:21;5.80;99.90
52495;DHT22;38405;53.212;5.660;2023-03-14T15:29:48;5.80;99.90
52495;DHT22;38405;53.212;5.660;2023-03-14T15:32:15;5.90;99.90
52495;DHT22;38405;53.212;5.660;2023-03-14T15:34:42;5.90;99.90
52495;DHT22;38405;53.212;5.660;2023-03-14T15:37:15;6.00;99.90
52495;DHT22;38405;53.212;5.660;2023-03-14T15:39:44;6.20;99.90
52495;DHT22;38405;53.212;5.660;2023-03-14T15:42:10;6.30;99.90
52495;DHT22;38405;53.212;5.660;2023-03-14T15:44:36;6.30;99.90
52495;DHT22;38405;53.212;5.660;2023-03-14T15:47:02;6.30;99.90
52495;DHT22;38405;53.212;5.660;2023-03-14T15:49:28;6.30;99.90
52495;DHT22;38405;53.212;5.660;2023-03-14T15:51:54;6.30;99.90
52495;DHT22;38405;53.212;5.660;2023-03-14T15:54:20;6.40;99.90
52495;DHT22;38405;53.212;5.660;2023-03-14T15:56:46;6.30;99.90
52495;DHT22;38405;53.212;5.660;2023-03-14T15:59:12;6.30;99.90
52495;DHT22;38405;53.212;5.660;2023-03-14T16:01:37;6.20;99.90
52495;DHT22;38405;53.212;5.660;2023-03-14T16:04:03;6.20;99.90
52495;DHT22;38405;53.212;5.660;2023-03-14T16:06:29;6.20;99.90
52495;DHT22;38405;53.212;5.660;2023-03-14T16:08:56;6.10;99.90
52495;DHT22;38405;53.212;5.660;2023-03-14T16:11:22;6.10;99.90
52495;DHT22;38405;53.212;5.660;2023-03-14T16:13:47;6.20;99.90
52495;DHT22;38405;53.212;5.660;2023-03-14T16:16:13;6.10;99.90
52495;DHT22;38405;53.212;5.660;2023-03-14T16:18:39;6.20;99.90
52495;DHT22;38405;53.212;5.660;2023-03-14T16:21:10;6.30;99.90
52495;DHT22;38405;53.212;5.660;2023-03-14T16:23:36;6.30;99.90
52495;DHT22;38405;53.212;5.660;2023-03-14T16:26:08;6.10;99.90
52495;DHT22;38405;53.212;5.660;2023-03-14T16:28:34;6.00;99.90
52495;DHT22;38405;53.212;5.660;2023-03-14T16:31:04;5.90;99.90
52495;DHT22;38405;53.212;5.660;2023-03-14T16:33:31;5.80;99.90
52495;DHT22;38405;53.212;5.660;2023-03-14T16:35:58;5.80;99.90
52495;DHT22;38405;53.212;5.660;2023-03-14T16:38:31;5.80;99.90
52495;DHT22;38405;53.212;5.660;2023-03-14T16:41:05;5.80;99.90
52495;DHT22;38405;53.212;5.660;2023-03-14T16:43:32;5.70;99.90
52495;DHT22;38405;53.212;5.660;2023-03-14T16:46:02;5.60;99.90
52495;DHT22;38405;53.212;5.660;2023-03-14T16:48:28;5.40;99.90
52495;DHT22;38405;53.212;5.660;2023-03-14T16:50:54;5.30;99.90
52495;DHT22;38405;53.212;5.660;2023-03-14T16:53:20;5.30;99.90
52495;DHT22;38405;53.212;5.660;2023-03-14T16:55:46;5.20;99.90
52495;DHT22;38405;53.212;5.660;2023-03-14T16:58:12;5.10;99.90
52495;DHT22;38405;53.212;5.660;2023-03-14T17:00:38;5.00;99.90
52495;DHT22;38405;53.212;5.660;2023-03-14T17:03:04;5.10;99.90
52495;DHT22;38405;53.212;5.660;2023-03-14T17:05:30;5.00;99.90
52495;DHT22;38405;53.212;5.660;2023-03-14T17:07:56;4.90;99.90
52495;DHT22;38405;53.212;5.660;2023-03-14T17:10:22;4.80;99.90